| time (UTC) | temp F | wind direction | speed MPH | gust MPH | rain 1hr in | rain 24hr in | rain mn in | humidity % | barometer mb |
| 20260903034014 | 79 | 96 | 0.0 | 0.0 | 0.00 | 0.00 | 0.00 | 68 | 1018.2 |
| 20260903033515 | 79 | 96 | 0.0 | 0.0 | 0.00 | 0.00 | 0.00 | 70 | 1018.1 |
| 20260903033030 | 79 | 96 | 0.0 | 0.0 | 0.00 | 0.00 | 0.00 | 70 | 1018.1 |
| 20260903032515 | 79 | 96 | 0.0 | 0.0 | 0.00 | 0.00 | 0.00 | 71 | 1018.1 |
| 20260903032015 | 80 | 96 | 0.0 | 0.0 | 0.00 | 0.00 | 0.00 | 70 | 1018.1 |
| 20260903031532 | 80 | 96 | 0.0 | 0.0 | 0.00 | 0.00 | 0.00 | 69 | 1018.1 |
| 20260903031015 | 80 | 96 | 0.0 | 0.0 | 0.00 | 0.00 | 0.00 | 67 | 1018.1 |
| 20260903030511 | 80 | 96 | 0.0 | 0.0 | 0.00 | 0.00 | 0.00 | 67 | 1018.2 |
| 20260903030016 | 80 | 96 | 0.0 | 0.0 | 0.00 | 0.00 | 0.00 | 67 | 1018.2 |
| 20260903025510 | 80 | 96 | 0.0 | 0.0 | 0.00 | 0.00 | 0.00 | 68 | 1018.2 |
| 20260903025009 | 80 | 96 | 0.0 | 0.0 | 0.00 | 0.00 | 0.00 | 68 | 1018.1 |
| 20260903024520 | 80 | 96 | 0.0 | 0.0 | 0.00 | 0.00 | 0.00 | 68 | 1018.2 |
| 20260903024012 | 80 | 96 | 0.0 | 0.0 | 0.00 | 0.00 | 0.00 | 67 | 1018.1 |
| 20260903023514 | 81 | 96 | 0.0 | 0.0 | 0.00 | 0.00 | 0.00 | 67 | 1018.2 |
| 20260903023026 | 81 | 96 | 0.0 | 0.0 | 0.00 | 0.00 | 0.00 | 67 | 1018.2 |
| 20260903022514 | 81 | 96 | 0.0 | 0.0 | 0.00 | 0.00 | 0.00 | 68 | 1018.2 |
| 20260903022013 | 81 | 96 | 0.0 | 0.0 | 0.00 | 0.00 | 0.00 | 67 | 1018.2 |
| 20260903021532 | 81 | 96 | 0.0 | 0.0 | 0.00 | 0.00 | 0.00 | 67 | 1018.3 |
| 20260903021018 | 81 | 96 | 0.0 | 0.0 | 0.00 | 0.00 | 0.00 | 66 | 1018.3 |
| 20260903020517 | 81 | 96 | 0.0 | 0.0 | 0.00 | 0.00 | 0.00 | 67 | 1018.3 |
| 20260903020040 | 81 | 96 | 0.0 | 0.0 | 0.00 | 0.00 | 0.00 | 66 | 1018.3 |
| 20260903015515 | 82 | 96 | 0.0 | 0.0 | 0.00 | 0.00 | 0.00 | 64 | 1018.3 |
| 20260903015011 | 82 | 96 | 0.0 | 0.0 | 0.00 | 0.00 | 0.00 | 64 | 1018.3 |
| 20260903014520 | 82 | 96 | 0.0 | 0.0 | 0.00 | 0.00 | 0.00 | 63 | 1018.2 |
| 20260903014012 | 82 | 96 | 0.0 | 0.0 | 0.00 | 0.00 | 0.00 | 63 | 1018.2 |
| 20260903013514 | 82 | 96 | 0.0 | 0.0 | 0.00 | 0.00 | 0.00 | 62 | 1018.3 |
| 20260903013023 | 83 | 96 | 0.0 | 0.0 | 0.00 | 0.00 | 0.00 | 60 | 1018.3 |
| 20260903012518 | 83 | 96 | 0.0 | 0.0 | 0.00 | 0.00 | 0.00 | 60 | 1018.3 |
| 20260903012017 | 83 | 96 | 0.0 | 0.0 | 0.00 | 0.00 | 0.00 | 60 | 1018.2 |
| 20260903011529 | 83 | 96 | 0.0 | 0.0 | 0.00 | 0.00 | 0.00 | 59 | 1018.2 |
| 20260903011021 | 83 | 96 | 0.0 | 0.0 | 0.00 | 0.00 | 0.00 | 58 | 1018.2 |
| 20260903010515 | 84 | 96 | 0.0 | 0.0 | 0.00 | 0.00 | 0.00 | 58 | 1017.9 |
| 20260903010039 | 84 | 96 | 0.0 | 0.0 | 0.00 | 0.00 | 0.00 | 57 | 1017.9 |
| 20260903005518 | 84 | 96 | 0.0 | 0.0 | 0.00 | 0.00 | 0.00 | 57 | 1017.8 |
| 20260903005019 | 84 | 96 | 0.0 | 0.0 | 0.00 | 0.00 | 0.00 | 57 | 1017.9 |
| 20260903004529 | 84 | 96 | 0.0 | 0.0 | 0.00 | 0.00 | 0.00 | 57 | 1017.8 |
| 20260903004020 | 85 | 96 | 0.0 | 0.0 | 0.00 | 0.00 | 0.00 | 56 | 1017.8 |
| 20260903003509 | 85 | 96 | 0.0 | 0.0 | 0.00 | 0.00 | 0.00 | 55 | 1017.8 |
| 20260903003021 | 85 | 96 | 0.0 | 0.0 | 0.00 | 0.00 | 0.00 | 55 | 1017.8 |
| 20260903002514 | 86 | 96 | 0.0 | 0.0 | 0.00 | 0.00 | 0.00 | 54 | 1017.8 |
| 20260903002014 | 86 | 96 | 0.0 | 0.0 | 0.00 | 0.00 | 0.00 | 54 | 1017.8 |
| 20260903001526 | 86 | 96 | 0.0 | 0.0 | 0.00 | 0.00 | 0.00 | 54 | 1017.8 |
| 20260903001019 | 87 | 96 | 0.0 | 0.0 | 0.00 | 0.00 | 0.00 | 52 | 1017.8 |
| 20260903000513 | 87 | 96 | 0.0 | 0.0 | 0.00 | 0.00 | 0.00 | 52 | 1017.8 |
| 20260903000030 | 87 | 96 | 0.0 | 0.0 | 0.00 | 0.00 | 0.00 | 51 | 1017.8 |
| 20260902235517 | 88 | 96 | 0.0 | 0.0 | 0.00 | 0.00 | 0.00 | 51 | 1017.9 |
| 20260902235016 | 88 | 96 | 0.0 | 0.0 | 0.00 | 0.00 | 0.00 | 50 | 1017.9 |
| 20260902234534 | 88 | 96 | 0.0 | 0.0 | 0.00 | 0.00 | 0.00 | 50 | 1017.9 |
| 20260902234014 | 88 | 96 | 0.0 | 0.0 | 0.00 | 0.00 | 0.00 | 49 | 1018.0 |
| 20260902233514 | 89 | 96 | 0.0 | 0.0 | 0.00 | 0.00 | 0.00 | 48 | 1018.0 |
| 20260902233032 | 89 | 96 | 0.0 | 1.0 | 0.00 | 0.00 | 0.00 | 48 | 1018.0 |
| 20260902232518 | 89 | 96 | 0.0 | 1.0 | 0.00 | 0.00 | 0.00 | 48 | 1017.9 |
| 20260902232014 | 90 | 96 | 0.0 | 1.0 | 0.00 | 0.00 | 0.00 | 48 | 1018.0 |
| 20260902231539 | 90 | 96 | 0.0 | 1.0 | 0.00 | 0.00 | 0.00 | 47 | 1018.0 |
| 20260902231016 | 90 | 96 | 0.0 | 2.0 | 0.00 | 0.00 | 0.00 | 45 | 1018.0 |
| 20260902230513 | 91 | 96 | 1.0 | 2.0 | 0.00 | 0.00 | 0.00 | 43 | 1018.0 |
| 20260902230029 | 91 | 96 | 0.0 | 1.0 | 0.00 | 0.00 | 0.00 | 44 | 1018.0 |
| 20260902225521 | 91 | 81 | 0.0 | 2.0 | 0.00 | 0.00 | 0.00 | 43 | 1018.0 |
| 20260902225020 | 91 | 81 | 0.0 | 2.0 | 0.00 | 0.00 | 0.00 | 41 | 1018.0 |
| 20260902224532 | 92 | 81 | 0.0 | 2.0 | 0.00 | 0.00 | 0.00 | 42 | 1017.9 |
| 20260902224016 | 92 | 74 | 0.0 | 2.0 | 0.00 | 0.00 | 0.00 | 39 | 1017.9 |
| 20260902223514 | 92 | 153 | 0.0 | 2.0 | 0.00 | 0.00 | 0.00 | 40 | 1017.9 |
| 20260902223041 | 92 | 126 | 0.0 | 2.0 | 0.00 | 0.00 | 0.00 | 39 | 1017.9 |
| 20260902222524 | 92 | 119 | 0.0 | 2.0 | 0.00 | 0.00 | 0.00 | 38 | 1018.0 |
| 20260902222016 | 92 | 142 | 0.0 | 3.0 | 0.00 | 0.00 | 0.00 | 38 | 1018.0 |
| 20260902221524 | 92 | 155 | 0.0 | 4.0 | 0.00 | 0.00 | 0.00 | 38 | 1018.1 |
| 20260902221012 | 92 | 152 | 0.0 | 6.0 | 0.00 | 0.00 | 0.00 | 39 | 1018.1 |
| 20260902220512 | 92 | 211 | 1.0 | 6.0 | 0.00 | 0.00 | 0.00 | 40 | 1018.1 |
| 20260902220033 | 92 | 93 | 0.0 | 6.0 | 0.00 | 0.00 | 0.00 | 39 | 1018.2 |
| 20260902215513 | 93 | 175 | 2.0 | 6.0 | 0.00 | 0.00 | 0.00 | 39 | 1018.1 |
| 20260902215015 | 93 | 94 | 0.0 | 4.0 | 0.00 | 0.00 | 0.00 | 39 | 1018.2 |
| 20260902214516 | 93 | 151 | 0.0 | 8.0 | 0.00 | 0.00 | 0.00 | 39 | 1018.2 |
| 20260902214006 | 93 | 164 | 3.0 | 8.0 | 0.00 | 0.00 | 0.00 | 39 | 1018.2 |
| 20260902213506 | 93 | 81 | 0.0 | 4.0 | 0.00 | 0.00 | 0.00 | 39 | 1018.2 |
| 20260902213031 | 93 | 98 | 0.0 | 4.0 | 0.00 | 0.00 | 0.00 | 42 | 1018.2 |
| 20260902212510 | 93 | 128 | 0.0 | 4.0 | 0.00 | 0.00 | 0.00 | 39 | 1018.2 |
| 20260902212007 | 94 | 155 | 1.0 | 4.0 | 0.00 | 0.00 | 0.00 | 39 | 1018.3 |
| 20260902211516 | 94 | 117 | 1.0 | 3.0 | 0.00 | 0.00 | 0.00 | 39 | 1018.3 |
| 20260902211009 | 94 | 78 | 1.0 | 6.0 | 0.00 | 0.00 | 0.00 | 39 | 1018.3 |
| 20260902210514 | 94 | 211 | 1.0 | 9.0 | 0.00 | 0.00 | 0.00 | 38 | 1018.3 |
| 20260902210025 | 95 | 246 | 4.0 | 9.0 | 0.00 | 0.00 | 0.00 | 38 | 1018.3 |
| 20260902205515 | 95 | 106 | 0.0 | 4.0 | 0.00 | 0.00 | 0.00 | 37 | 1018.4 |
| 20260902205015 | 95 | 74 | 1.0 | 3.0 | 0.00 | 0.00 | 0.00 | 35 | 1018.4 |
| 20260902204527 | 96 | 132 | 0.0 | 3.0 | 0.00 | 0.00 | 0.00 | 38 | 1018.4 |
| 20260902204015 | 96 | 136 | 1.0 | 3.0 | 0.00 | 0.00 | 0.00 | 37 | 1018.4 |
| 20260902203516 | 96 | 80 | 1.0 | 4.0 | 0.00 | 0.00 | 0.00 | 36 | 1018.4 |
| 20260902203008 | 97 | 115 | 0.0 | 4.0 | 0.00 | 0.00 | 0.00 | 36 | 1018.5 |
| 20260902202506 | 96 | 93 | 0.0 | 3.0 | 0.00 | 0.00 | 0.00 | 37 | 1018.6 |
| 20260902202006 | 96 | 74 | 1.0 | 3.0 | 0.00 | 0.00 | 0.00 | 36 | 1018.6 |
| 20260902201513 | 96 | 76 | 1.0 | 5.0 | 0.00 | 0.00 | 0.00 | 37 | 1018.7 |
| 20260902201007 | 96 | 165 | 2.0 | 5.0 | 0.00 | 0.00 | 0.00 | 37 | 1018.7 |
| 20260902200516 | 95 | 118 | 0.0 | 5.0 | 0.00 | 0.00 | 0.00 | 36 | 1018.6 |
| 20260902200022 | 95 | 190 | 1.0 | 5.0 | 0.00 | 0.00 | 0.00 | 36 | 1018.7 |
| 20260902195513 | 95 | 198 | 1.0 | 4.0 | 0.00 | 0.00 | 0.00 | 37 | 1018.8 |
| 20260902195011 | 94 | 85 | 0.0 | 4.0 | 0.00 | 0.00 | 0.00 | 38 | 1018.9 |
| 20260902194537 | 94 | 106 | 1.0 | 5.0 | 0.00 | 0.00 | 0.00 | 40 | 1019.0 |
| 20260902194015 | 94 | 97 | 1.0 | 5.0 | 0.00 | 0.00 | 0.00 | 41 | 1019.1 |
| 20260902193516 | 94 | 101 | 0.0 | 3.0 | 0.00 | 0.00 | 0.00 | 43 | 1019.1 |
| 20260902193030 | 93 | 94 | 0.0 | 5.0 | 0.00 | 0.00 | 0.00 | 45 | 1019.1 |
| 20260902192517 | 94 | 89 | 1.0 | 6.0 | 0.00 | 0.00 | 0.00 | 41 | 1019.3 |
| 20260902192019 | 94 | 208 | 2.0 | 6.0 | 0.00 | 0.00 | 0.00 | 41 | 1019.3 |
| 20260902191512 | 94 | 174 | 1.0 | 6.0 | 0.00 | 0.00 | 0.00 | 41 | 1019.3 |
| 20260902191007 | 94 | 175 | 2.0 | 6.0 | 0.00 | 0.00 | 0.00 | 42 | 1019.3 |
| 20260902190507 | 94 | 92 | 1.0 | 3.0 | 0.00 | 0.00 | 0.00 | 42 | 1019.3 |
| 20260902190018 | 93 | 132 | 1.0 | 5.0 | 0.00 | 0.00 | 0.00 | 43 | 1019.4 |
| 20260902185512 | 93 | 149 | 1.0 | 5.0 | 0.00 | 0.00 | 0.00 | 44 | 1019.5 |
| 20260902185016 | 93 | 115 | 1.0 | 4.0 | 0.00 | 0.00 | 0.00 | 44 | 1019.6 |
| 20260902184529 | 93 | 190 | 0.0 | 4.0 | 0.00 | 0.00 | 0.00 | 42 | 1019.6 |
| 20260902184015 | 92 | 156 | 2.0 | 4.0 | 0.00 | 0.00 | 0.00 | 42 | 1019.6 |
| 20260902183513 | 92 | 92 | 1.0 | 3.0 | 0.00 | 0.00 | 0.00 | 43 | 1019.6 |
| 20260902183030 | 92 | 140 | 1.0 | 3.0 | 0.00 | 0.00 | 0.00 | 44 | 1019.6 |
| 20260902182516 | 92 | 105 | 0.0 | 3.0 | 0.00 | 0.00 | 0.00 | 47 | 1019.6 |
| 20260902182016 | 92 | 158 | 1.0 | 4.0 | 0.00 | 0.00 | 0.00 | 47 | 1019.6 |
| 20260902181531 | 92 | 94 | 1.0 | 5.0 | 0.00 | 0.00 | 0.00 | 45 | 1019.6 |
| 20260902181018 | 91 | 192 | 3.0 | 5.0 | 0.00 | 0.00 | 0.00 | 44 | 1019.8 |
| 20260902180516 | 91 | 111 | 1.0 | 4.0 | 0.00 | 0.00 | 0.00 | 45 | 1019.8 |
| 20260902180014 | 91 | 108 | 1.0 | 3.0 | 0.00 | 0.00 | 0.00 | 45 | 1019.8 |
| 20260902175508 | 91 | 130 | 1.0 | 3.0 | 0.00 | 0.00 | 0.00 | 46 | 1019.9 |
| 20260902175012 | 91 | 99 | 0.0 | 3.0 | 0.00 | 0.00 | 0.00 | 46 | 1019.9 |
| 20260902174520 | 91 | 115 | 0.0 | 4.0 | 0.00 | 0.00 | 0.00 | 45 | 1020.0 |
| 20260902174015 | 91 | 94 | 1.0 | 4.0 | 0.00 | 0.00 | 0.00 | 46 | 1020.1 |
| 20260902173525 | 91 | 182 | 1.0 | 5.0 | 0.00 | 0.00 | 0.00 | 48 | 1020.1 |
| 20260902173026 | 91 | 111 | 1.0 | 5.0 | 0.00 | 0.00 | 0.00 | 49 | 1020.3 |
| 20260902172514 | 90 | 81 | 1.0 | 3.0 | 0.00 | 0.00 | 0.00 | 49 | 1020.3 |
| 20260902172016 | 90 | 210 | 0.0 | 2.0 | 0.00 | 0.00 | 0.00 | 48 | 1020.2 |
| 20260902171530 | 90 | 128 | 0.0 | 3.0 | 0.00 | 0.00 | 0.00 | 48 | 1020.4 |
| 20260902171023 | 90 | 131 | 0.0 | 4.0 | 0.00 | 0.00 | 0.00 | 48 | 1020.4 |
| 20260902170514 | 91 | 93 | 1.0 | 5.0 | 0.00 | 0.00 | 0.00 | 48 | 1020.4 |
| 20260902170030 | 90 | 228 | 2.0 | 5.0 | 0.00 | 0.00 | 0.00 | 48 | 1020.5 |
| 20260902165519 | 90 | 149 | 0.0 | 3.0 | 0.00 | 0.00 | 0.00 | 48 | 1020.4 |
| 20260902165018 | 90 | 88 | 1.0 | 3.0 | 0.00 | 0.00 | 0.00 | 46 | 1020.5 |
| 20260902164515 | 90 | 151 | 0.0 | 7.0 | 0.00 | 0.00 | 0.00 | 49 | 1020.6 |
| 20260902164011 | 90 | 124 | 2.0 | 6.0 | 0.00 | 0.00 | 0.00 | 49 | 1020.6 |
| 20260902163514 | 89 | 199 | 0.0 | 5.0 | 0.00 | 0.00 | 0.00 | 51 | 1020.6 |
| 20260902163023 | 89 | 255 | 0.0 | 5.0 | 0.00 | 0.00 | 0.00 | 52 | 1020.7 |
| 20260902162515 | 89 | 205 | 0.0 | 3.0 | 0.00 | 0.00 | 0.00 | 52 | 1020.7 |
| 20260902162018 | 89 | 121 | 0.0 | 5.0 | 0.00 | 0.00 | 0.00 | 51 | 1020.6 |
| 20260902161535 | 88 | 211 | 1.0 | 5.0 | 0.00 | 0.00 | 0.00 | 54 | 1020.7 |
| 20260902161017 | 88 | 205 | 0.0 | 3.0 | 0.00 | 0.00 | 0.00 | 54 | 1020.8 |
| 20260902160515 | 88 | 105 | 0.0 | 3.0 | 0.00 | 0.00 | 0.00 | 54 | 1020.8 |
| 20260902160031 | 88 | 157 | 0.0 | 4.0 | 0.00 | 0.00 | 0.00 | 53 | 1021.0 |
| 20260902155514 | 87 | 165 | 0.0 | 4.0 | 0.00 | 0.00 | 0.00 | 55 | 1021.1 |
| 20260902155020 | 87 | 109 | 0.0 | 4.0 | 0.00 | 0.00 | 0.00 | 55 | 1021.0 |
| 20260902154531 | 87 | 109 | 1.0 | 4.0 | 0.00 | 0.00 | 0.00 | 57 | 1021.1 |
| 20260902154019 | 86 | 103 | 0.0 | 3.0 | 0.00 | 0.00 | 0.00 | 57 | 1021.1 |
| 20260902153521 | 86 | 118 | 0.0 | 4.0 | 0.00 | 0.00 | 0.00 | 59 | 1021.0 |
| 20260902153020 | 86 | 124 | 0.0 | 5.0 | 0.00 | 0.00 | 0.00 | 60 | 1021.0 |
| 20260902152513 | 86 | 236 | 1.0 | 5.0 | 0.00 | 0.00 | 0.00 | 60 | 1021.1 |
| 20260902152011 | 85 | 223 | 1.0 | 4.0 | 0.00 | 0.00 | 0.00 | 58 | 1021.1 |
| 20260902151528 | 85 | 205 | 1.0 | 4.0 | 0.00 | 0.00 | 0.00 | 60 | 1021.0 |
| 20260902151016 | 85 | 223 | 0.0 | 6.0 | 0.00 | 0.00 | 0.00 | 60 | 1021.0 |
| 20260902150516 | 84 | 221 | 2.0 | 6.0 | 0.00 | 0.00 | 0.00 | 60 | 1020.9 |
| 20260902150030 | 84 | 182 | 1.0 | 5.0 | 0.00 | 0.00 | 0.00 | 63 | 1020.9 |
| 20260902145517 | 84 | 196 | 0.0 | 3.0 | 0.00 | 0.00 | 0.00 | 63 | 1020.9 |
| 20260902145018 | 84 | 184 | 0.0 | 5.0 | 0.00 | 0.00 | 0.00 | 63 | 1020.8 |
| 20260902144529 | 83 | 218 | 3.0 | 5.0 | 0.00 | 0.00 | 0.00 | 62 | 1020.8 |
| 20260902144016 | 83 | 215 | 2.0 | 5.0 | 0.00 | 0.00 | 0.00 | 64 | 1020.7 |
| 20260902143522 | 83 | 211 | 0.0 | 4.0 | 0.00 | 0.00 | 0.00 | 64 | 1020.7 |
| 20260902143033 | 82 | 234 | 0.0 | 3.0 | 0.00 | 0.00 | 0.00 | 65 | 1020.7 |
| 20260902142519 | 82 | 121 | 0.0 | 3.0 | 0.00 | 0.00 | 0.00 | 66 | 1020.8 |
| 20260902142015 | 82 | 121 | 0.0 | 3.0 | 0.00 | 0.00 | 0.00 | 67 | 1020.8 |
| 20260902141524 | 81 | 207 | 0.0 | 2.0 | 0.00 | 0.00 | 0.00 | 67 | 1020.8 |
| 20260902141015 | 81 | 147 | 0.0 | 2.0 | 0.00 | 0.00 | 0.00 | 67 | 1020.8 |
| 20260902140514 | 81 | 232 | 0.0 | 2.0 | 0.00 | 0.00 | 0.00 | 67 | 1020.7 |
| 20260902140028 | 81 | 180 | 0.0 | 2.0 | 0.00 | 0.00 | 0.00 | 69 | 1020.7 |
| 20260902135513 | 80 | 126 | 0.0 | 3.0 | 0.00 | 0.00 | 0.00 | 69 | 1020.7 |
| 20260902135013 | 80 | 209 | 0.0 | 3.0 | 0.00 | 0.00 | 0.00 | 69 | 1020.7 |
| 20260902134536 | 80 | 192 | 0.0 | 3.0 | 0.00 | 0.00 | 0.00 | 70 | 1020.7 |
| 20260902134016 | 79 | 161 | 0.0 | 3.0 | 0.00 | 0.00 | 0.00 | 71 | 1020.6 |
| 20260902133515 | 79 | 205 | 0.0 | 3.0 | 0.00 | 0.00 | 0.00 | 71 | 1020.6 |
| 20260902133033 | 79 | 115 | 0.0 | 3.0 | 0.00 | 0.00 | 0.00 | 72 | 1020.6 |
| 20260902132517 | 79 | 115 | 0.0 | 3.0 | 0.00 | 0.00 | 0.00 | 72 | 1020.6 |
| 20260902132011 | 78 | 217 | 0.0 | 2.0 | 0.00 | 0.00 | 0.00 | 73 | 1020.6 |
| 20260902131519 | 78 | 91 | 0.0 | 2.0 | 0.00 | 0.00 | 0.00 | 74 | 1020.6 |
| 20260902131012 | 78 | 148 | 0.0 | 2.0 | 0.00 | 0.00 | 0.00 | 74 | 1020.6 |
| 20260902130513 | 77 | 103 | 0.0 | 0.0 | 0.00 | 0.00 | 0.00 | 75 | 1020.6 |
| 20260902130027 | 77 | 108 | 0.0 | 0.0 | 0.00 | 0.00 | 0.00 | 75 | 1020.5 |
| 20260902125514 | 77 | 101 | 0.0 | 0.0 | 0.00 | 0.00 | 0.00 | 76 | 1020.6 |
| 20260902125017 | 77 | 101 | 0.0 | 2.0 | 0.00 | 0.00 | 0.00 | 76 | 1020.5 |
| 20260902124527 | 76 | 101 | 0.0 | 2.0 | 0.00 | 0.00 | 0.00 | 77 | 1020.5 |
| 20260902124003 | 76 | 107 | 0.0 | 2.0 | 0.00 | 0.00 | 0.00 | 78 | 1020.4 |
| 20260902123507 | 75 | 111 | 0.0 | 1.0 | 0.00 | 0.00 | 0.00 | 79 | 1020.4 |
| 20260902123018 | 75 | 163 | 0.0 | 1.0 | 0.00 | 0.00 | 0.00 | 80 | 1020.5 |
| 20260902122511 | 75 | 163 | 0.0 | 1.0 | 0.00 | 0.00 | 0.00 | 81 | 1020.4 |
| 20260902122006 | 74 | 163 | 0.0 | 1.0 | 0.00 | 0.00 | 0.00 | 82 | 1020.3 |
| 20260902121515 | 74 | 163 | 0.0 | 0.0 | 0.00 | 0.00 | 0.00 | 83 | 1020.4 |
| 20260902121010 | 74 | 163 | 0.0 | 1.0 | 0.00 | 0.00 | 0.00 | 84 | 1020.3 |
| 20260902120512 | 73 | 163 | 0.0 | 1.0 | 0.00 | 0.00 | 0.00 | 85 | 1020.3 |
| 20260902120024 | 73 | 163 | 0.0 | 0.0 | 0.00 | 0.00 | 0.00 | 86 | 1020.3 |
| 20260902115520 | 73 | 163 | 0.0 | 0.0 | 0.00 | 0.00 | 0.00 | 87 | 1020.3 |
| 20260902115014 | 72 | 163 | 0.0 | 0.0 | 0.00 | 0.00 | 0.00 | 87 | 1020.3 |
| 20260902114527 | 72 | 163 | 0.0 | 0.0 | 0.00 | 0.00 | 0.00 | 87 | 1020.2 |
| 20260902114014 | 72 | 163 | 0.0 | 0.0 | 0.00 | 0.00 | 0.00 | 87 | 1020.2 |
| 20260902113515 | 72 | 163 | 0.0 | 0.0 | 0.00 | 0.00 | 0.00 | 87 | 1020.1 |
| 20260902113031 | 72 | 163 | 0.0 | 0.0 | 0.00 | 0.00 | 0.00 | 87 | 1020.1 |
| 20260902112508 | 72 | 163 | 0.0 | 0.0 | 0.00 | 0.00 | 0.00 | 87 | 1020.0 |
| 20260902112007 | 72 | 163 | 0.0 | 0.0 | 0.00 | 0.00 | 0.00 | 87 | 1020.0 |
| 20260902111511 | 72 | 165 | 0.0 | 0.0 | 0.00 | 0.00 | 0.00 | 87 | 1020.0 |
| 20260902111011 | 72 | 165 | 0.0 | 0.0 | 0.00 | 0.00 | 0.00 | 87 | 1019.9 |
| 20260902110511 | 72 | 165 | 0.0 | 0.0 | 0.00 | 0.00 | 0.00 | 87 | 1019.8 |
| 20260902110029 | 72 | 165 | 0.0 | 0.0 | 0.00 | 0.00 | 0.00 | 86 | 1019.9 |
| 20260902105512 | 72 | 165 | 0.0 | 0.0 | 0.00 | 0.00 | 0.00 | 87 | 1019.8 |
| 20260902105014 | 72 | 165 | 0.0 | 0.0 | 0.00 | 0.00 | 0.00 | 87 | 1019.9 |
| 20260902104543 | 73 | 165 | 0.0 | 0.0 | 0.00 | 0.00 | 0.00 | 87 | 1019.8 |
| 20260902104017 | 73 | 165 | 0.0 | 0.0 | 0.00 | 0.00 | 0.00 | 86 | 1019.8 |
| 20260902103516 | 73 | 165 | 0.0 | 0.0 | 0.00 | 0.00 | 0.00 | 86 | 1019.8 |
| 20260902103028 | 73 | 165 | 0.0 | 0.0 | 0.00 | 0.00 | 0.00 | 87 | 1019.7 |
| 20260902102515 | 73 | 165 | 0.0 | 0.0 | 0.00 | 0.00 | 0.00 | 86 | 1019.7 |
| 20260902102017 | 73 | 165 | 0.0 | 0.0 | 0.00 | 0.00 | 0.00 | 86 | 1019.7 |
| 20260902101532 | 73 | 165 | 0.0 | 0.0 | 0.00 | 0.00 | 0.00 | 86 | 1019.7 |
| 20260902101007 | 73 | 165 | 0.0 | 0.0 | 0.00 | 0.00 | 0.00 | 86 | 1019.6 |
| 20260902100510 | 73 | 165 | 0.0 | 0.0 | 0.00 | 0.00 | 0.00 | 85 | 1019.6 |
| 20260902100015 | 73 | 165 | 0.0 | 0.0 | 0.00 | 0.00 | 0.00 | 85 | 1019.6 |
| 20260902095510 | 73 | 165 | 0.0 | 0.0 | 0.00 | 0.00 | 0.00 | 85 | 1019.5 |
| 20260902095012 | 73 | 165 | 0.0 | 0.0 | 0.00 | 0.00 | 0.00 | 85 | 1019.5 |
| 20260902094523 | 73 | 165 | 0.0 | 0.0 | 0.00 | 0.00 | 0.00 | 85 | 1019.5 |
| 20260902094012 | 73 | 165 | 0.0 | 0.0 | 0.00 | 0.00 | 0.00 | 85 | 1019.4 |
| 20260902093515 | 73 | 165 | 0.0 | 0.0 | 0.00 | 0.00 | 0.00 | 85 | 1019.4 |
| 20260902093030 | 73 | 165 | 0.0 | 0.0 | 0.00 | 0.00 | 0.00 | 85 | 1019.3 |
| 20260902092515 | 73 | 165 | 0.0 | 0.0 | 0.00 | 0.00 | 0.00 | 85 | 1019.3 |
| 20260902092022 | 73 | 165 | 0.0 | 0.0 | 0.00 | 0.00 | 0.00 | 85 | 1019.4 |
| 20260902091530 | 73 | 165 | 0.0 | 0.0 | 0.00 | 0.00 | 0.00 | 85 | 1019.3 |
| 20260902091015 | 73 | 165 | 0.0 | 0.0 | 0.00 | 0.00 | 0.00 | 85 | 1019.3 |
| 20260902090519 | 74 | 165 | 0.0 | 0.0 | 0.00 | 0.00 | 0.00 | 85 | 1019.3 |
| 20260902090034 | 74 | 165 | 0.0 | 0.0 | 0.00 | 0.00 | 0.00 | 85 | 1019.3 |
| 20260902085509 | 74 | 165 | 0.0 | 0.0 | 0.00 | 0.00 | 0.00 | 85 | 1019.3 |
| 20260902085011 | 74 | 165 | 0.0 | 0.0 | 0.00 | 0.00 | 0.00 | 85 | 1019.3 |
| 20260902084520 | 74 | 165 | 0.0 | 0.0 | 0.00 | 0.00 | 0.00 | 84 | 1019.2 |
| 20260902084020 | 74 | 165 | 0.0 | 0.0 | 0.00 | 0.00 | 0.00 | 84 | 1019.1 |
| 20260902083512 | 74 | 165 | 0.0 | 0.0 | 0.00 | 0.00 | 0.00 | 84 | 1019.1 |
| 20260902083024 | 74 | 165 | 0.0 | 0.0 | 0.00 | 0.00 | 0.00 | 84 | 1019.1 |
| 20260902082516 | 74 | 165 | 0.0 | 0.0 | 0.00 | 0.00 | 0.00 | 84 | 1019.2 |
| 20260902082013 | 74 | 165 | 0.0 | 0.0 | 0.00 | 0.00 | 0.00 | 84 | 1019.2 |
| 20260902081528 | 74 | 165 | 0.0 | 0.0 | 0.00 | 0.00 | 0.00 | 84 | 1019.2 |
| 20260902081017 | 74 | 165 | 0.0 | 0.0 | 0.00 | 0.00 | 0.00 | 84 | 1019.2 |
| 20260902080516 | 74 | 165 | 0.0 | 0.0 | 0.00 | 0.00 | 0.00 | 83 | 1019.2 |
| 20260902080030 | 74 | 165 | 0.0 | 0.0 | 0.00 | 0.00 | 0.00 | 83 | 1019.1 |
| 20260902075518 | 74 | 165 | 0.0 | 0.0 | 0.00 | 0.00 | 0.00 | 83 | 1019.1 |
| 20260902075019 | 74 | 165 | 0.0 | 0.0 | 0.00 | 0.00 | 0.00 | 83 | 1019.1 |
| 20260902074534 | 75 | 165 | 0.0 | 0.0 | 0.00 | 0.00 | 0.00 | 83 | 1019.1 |
| 20260902074012 | 75 | 165 | 0.0 | 0.0 | 0.00 | 0.00 | 0.00 | 83 | 1019.1 |
| 20260902073513 | 75 | 165 | 0.0 | 0.0 | 0.00 | 0.00 | 0.00 | 83 | 1019.0 |
| 20260902073023 | 75 | 165 | 0.0 | 0.0 | 0.00 | 0.00 | 0.00 | 83 | 1019.1 |
| 20260902072519 | 75 | 165 | 0.0 | 0.0 | 0.00 | 0.00 | 0.00 | 83 | 1019.0 |
| 20260902072003 | 75 | 165 | 0.0 | 0.0 | 0.00 | 0.00 | 0.00 | 82 | 1018.9 |
| 20260902071503 | 75 | 165 | 0.0 | 0.0 | 0.00 | 0.00 | 0.00 | 82 | 1018.9 |
| 20260902071003 | 75 | 165 | 0.0 | 0.0 | 0.00 | 0.00 | 0.00 | 82 | 1018.9 |
| 20260902070505 | 75 | 165 | 0.0 | 0.0 | 0.00 | 0.00 | 0.00 | 82 | 1018.9 |
| 20260902070005 | 75 | 165 | 0.0 | 0.0 | 0.00 | 0.00 | 0.00 | 82 | 1018.9 |
| 20260902065504 | 75 | 165 | 0.0 | 0.0 | 0.00 | 0.00 | 0.00 | 82 | 1019.0 |
| 20260902065003 | 75 | 165 | 0.0 | 0.0 | 0.00 | 0.00 | 0.00 | 82 | 1018.9 |
| 20260902064510 | 75 | 165 | 0.0 | 0.0 | 0.00 | 0.00 | 0.00 | 82 | 1018.9 |
| 20260902064006 | 75 | 165 | 0.0 | 0.0 | 0.00 | 0.00 | 0.00 | 82 | 1018.9 |
| 20260902063503 | 75 | 165 | 0.0 | 0.0 | 0.00 | 0.00 | 0.00 | 82 | 1019.0 |
| 20260902063004 | 75 | 165 | 0.0 | 0.0 | 0.00 | 0.00 | 0.00 | 82 | 1019.2 |
| 20260902062504 | 75 | 165 | 0.0 | 0.0 | 0.00 | 0.00 | 0.00 | 82 | 1019.3 |
| 20260902062005 | 75 | 165 | 0.0 | 0.0 | 0.00 | 0.00 | 0.00 | 81 | 1019.3 |
| 20260902061505 | 75 | 165 | 0.0 | 0.0 | 0.00 | 0.00 | 0.00 | 81 | 1019.3 |
| 20260902061002 | 75 | 165 | 0.0 | 0.0 | 0.00 | 0.00 | 0.00 | 81 | 1019.3 |
| 20260902060501 | 75 | 165 | 0.0 | 0.0 | 0.00 | 0.00 | 0.00 | 81 | 1019.3 |
| 20260902060004 | 75 | 165 | 0.0 | 0.0 | 0.00 | 0.00 | 0.00 | 80 | 1019.3 |
| 20260902055503 | 76 | 165 | 0.0 | 0.0 | 0.00 | 0.00 | 0.00 | 79 | 1019.3 |
| 20260902055006 | 76 | 165 | 0.0 | 0.0 | 0.00 | 0.00 | 0.00 | 80 | 1019.3 |
| 20260902054503 | 76 | 165 | 0.0 | 0.0 | 0.00 | 0.00 | 0.00 | 79 | 1019.3 |
| 20260902054005 | 76 | 165 | 0.0 | 0.0 | 0.00 | 0.00 | 0.00 | 79 | 1019.2 |
| 20260902053505 | 76 | 165 | 0.0 | 0.0 | 0.00 | 0.00 | 0.00 | 79 | 1019.3 |
| 20260902053006 | 76 | 165 | 0.0 | 0.0 | 0.00 | 0.00 | 0.00 | 80 | 1019.3 |
| 20260902052506 | 76 | 165 | 0.0 | 0.0 | 0.00 | 0.00 | 0.00 | 79 | 1019.3 |
| 20260902052005 | 76 | 165 | 0.0 | 0.0 | 0.00 | 0.00 | 0.00 | 80 | 1019.3 |
| 20260902051509 | 76 | 165 | 0.0 | 0.0 | 0.00 | 0.00 | 0.00 | 80 | 1019.2 |
| 20260902051009 | 76 | 165 | 0.0 | 0.0 | 0.00 | 0.00 | 0.00 | 79 | 1019.2 |
| 20260902050508 | 76 | 165 | 0.0 | 0.0 | 0.00 | 0.00 | 0.00 | 79 | 1019.2 |
| 20260902050008 | 76 | 165 | 0.0 | 0.0 | 0.00 | 0.00 | 0.00 | 80 | 1019.2 |
| 20260902045506 | 76 | 165 | 0.0 | 0.0 | 0.00 | 0.00 | 0.00 | 79 | 1019.2 |
| 20260902045005 | 76 | 165 | 0.0 | 0.0 | 0.00 | 0.00 | 0.00 | 79 | 1019.2 |
| 20260902044513 | 76 | 165 | 0.0 | 0.0 | 0.00 | 0.00 | 0.00 | 79 | 1019.2 |
| 20260902044003 | 77 | 165 | 0.0 | 0.0 | 0.00 | 0.00 | 0.00 | 79 | 1019.1 |
| 20260902043505 | 77 | 165 | 0.0 | 0.0 | 0.00 | 0.00 | 0.00 | 78 | 1019.1 |
| 20260902043008 | 77 | 165 | 0.0 | 0.0 | 0.00 | 0.00 | 0.00 | 77 | 1019.0 |
| 20260902042505 | 77 | 165 | 0.0 | 0.0 | 0.00 | 0.00 | 0.00 | 77 | 1019.1 |
| 20260902042005 | 77 | 165 | 0.0 | 0.0 | 0.00 | 0.00 | 0.00 | 77 | 1019.1 |
| 20260902041507 | 77 | 165 | 0.0 | 0.0 | 0.00 | 0.00 | 0.00 | 76 | 1019.2 |
| 20260902041009 | 77 | 165 | 0.0 | 0.0 | 0.00 | 0.00 | 0.00 | 76 | 1019.1 |
| 20260902040509 | 77 | 165 | 0.0 | 0.0 | 0.00 | 0.00 | 0.00 | 76 | 1019.1 |
| 20260902040008 | 77 | 165 | 0.0 | 0.0 | 0.00 | 0.00 | 0.00 | 75 | 1019.2 |
| 20260902035506 | 77 | 165 | 0.0 | 0.0 | 0.00 | 0.00 | 0.00 | 73 | 1019.1 |
| 20260902035008 | 78 | 165 | 0.0 | 0.0 | 0.00 | 0.00 | 0.00 | 73 | 1019.2 |
| 20260902034511 | 78 | 165 | 0.0 | 0.0 | 0.00 | 0.00 | 0.00 | 73 | 1019.2 |